createdAt,value
2019-05-21T00:02:21.058Z,8.50
2019-05-21T00:04:48.104Z,8.50
2019-05-21T00:07:15.201Z,8.50
2019-05-21T00:09:42.298Z,8.50
2019-05-21T00:12:09.494Z,8.50
2019-05-21T00:14:36.654Z,8.50
2019-05-21T00:17:03.767Z,8.50
2019-05-21T00:19:31.318Z,8.50
2019-05-21T00:21:58.475Z,8.50
2019-05-21T00:24:25.556Z,8.50
2019-05-21T00:26:52.585Z,8.50
2019-05-21T00:29:56.595Z,8.50
2019-05-21T00:33:00.688Z,8.50
2019-05-21T00:36:05.180Z,8.50
2019-05-21T00:39:10.211Z,8.50
2019-05-21T00:42:01.063Z,8.50
2019-05-21T00:44:30.556Z,8.50
2019-05-21T00:46:57.509Z,8.50
2019-05-21T00:49:24.607Z,8.60
2019-05-21T00:52:05.047Z,8.60
2019-05-21T00:54:20.636Z,8.50
2019-05-21T00:56:47.638Z,8.50
2019-05-21T00:59:15.541Z,8.50
2019-05-21T01:01:42.496Z,8.50
2019-05-21T01:04:09.561Z,8.50
2019-05-21T01:06:36.589Z,8.50
2019-05-21T01:09:04.565Z,8.50
2019-05-21T01:11:31.626Z,8.50
2019-05-21T01:13:58.730Z,8.50
2019-05-21T01:16:25.738Z,8.50
2019-05-21T01:18:52.918Z,8.60
2019-05-21T01:21:19.978Z,8.50
2019-05-21T01:23:47.035Z,8.50
2019-05-21T01:26:14.110Z,8.50
2019-05-21T01:28:41.128Z,8.50
2019-05-21T01:31:08.140Z,8.50
2019-05-21T01:33:35.173Z,8.50
2019-05-21T01:36:02.146Z,8.50
2019-05-21T01:38:29.172Z,9.20
2019-05-21T01:40:56.177Z,8.50
2019-05-21T01:43:24.031Z,8.60
2019-05-21T01:45:51.126Z,8.60
2019-05-21T01:48:18.200Z,8.70
2019-05-21T01:50:45.212Z,8.70
2019-05-21T01:53:13.057Z,8.70
2019-05-21T01:55:41.100Z,8.80
2019-05-21T01:58:10.552Z,8.80
2019-05-21T02:00:37.623Z,8.80
2019-05-21T02:03:04.762Z,8.80
2019-05-21T02:05:33.380Z,8.80
2019-05-21T02:08:00.780Z,8.80
2019-05-21T02:10:27.893Z,8.80
2019-05-21T02:12:54.973Z,8.80
2019-05-21T02:15:22.186Z,8.80
2019-05-21T02:17:49.339Z,8.80
2019-05-21T02:20:17.311Z,8.80
2019-05-21T02:22:44.555Z,8.90
2019-05-21T02:25:12.002Z,8.90
2019-05-21T02:27:39.188Z,8.90
2019-05-21T02:30:08.805Z,8.90
2019-05-21T02:32:36.087Z,8.90
2019-05-21T02:35:04.725Z,8.90
2019-05-21T02:37:32.676Z,9.20
2019-05-21T02:39:59.841Z,8.90
2019-05-21T02:42:27.002Z,8.90
2019-05-21T02:44:54.693Z,8.90
2019-05-21T02:47:22.137Z,8.90
2019-05-21T02:49:49.199Z,8.90
2019-05-21T02:52:16.242Z,8.90
2019-05-21T02:54:43.275Z,8.90
2019-05-21T02:57:10.298Z,8.90
2019-05-21T02:59:37.940Z,9.00
2019-05-21T03:02:10.055Z,9.00
2019-05-21T03:04:37.225Z,9.00
2019-05-21T03:07:18.603Z,9.00
2019-05-21T03:09:47.825Z,9.00
2019-05-21T03:12:16.408Z,9.00
2019-05-21T03:14:43.630Z,9.00
2019-05-21T03:17:11.121Z,9.00
2019-05-21T03:19:45.503Z,9.00
2019-05-21T03:22:12.590Z,8.40
2019-05-21T03:24:40.858Z,8.90
2019-05-21T03:27:07.994Z,8.90
2019-05-21T03:29:35.165Z,8.90
2019-05-21T03:32:02.289Z,8.90
2019-05-21T03:34:29.388Z,8.80
2019-05-21T03:36:56.510Z,8.80
2019-05-21T03:39:23.569Z,8.80
2019-05-21T03:41:50.583Z,8.80
2019-05-21T03:44:17.653Z,8.80
2019-05-21T03:46:44.694Z,8.80
2019-05-21T03:49:11.724Z,8.70
2019-05-21T03:51:38.756Z,8.70
2019-05-21T03:54:05.774Z,8.70
2019-05-21T03:56:32.839Z,8.70
2019-05-21T03:58:59.874Z,8.70
2019-05-21T04:01:27.024Z,8.70
2019-05-21T04:03:54.109Z,8.70
2019-05-21T04:06:21.177Z,8.70
2019-05-21T04:08:48.164Z,8.60
2019-05-21T04:11:15.218Z,8.60
2019-05-21T04:13:42.210Z,8.60
2019-05-21T04:16:30.136Z,8.60
2019-05-21T04:19:14.272Z,8.60
2019-05-21T04:21:41.294Z,8.60
2019-05-21T04:24:09.292Z,8.50
2019-05-21T04:26:36.888Z,8.50
2019-05-21T04:29:04.051Z,8.50
2019-05-21T04:31:31.161Z,8.50
2019-05-21T04:33:58.187Z,8.50
2019-05-21T04:36:25.407Z,8.40
2019-05-21T04:38:52.407Z,8.40
2019-05-21T04:41:19.479Z,8.40
2019-05-21T04:43:46.467Z,8.40
2019-05-21T04:46:13.608Z,8.30
2019-05-21T04:48:40.564Z,8.30
2019-05-21T04:51:07.595Z,8.30
2019-05-21T04:53:34.679Z,8.30
2019-05-21T04:56:01.805Z,8.30
2019-05-21T04:58:28.901Z,8.30
2019-05-21T05:00:56.710Z,8.30
2019-05-21T05:03:23.770Z,8.30
2019-05-21T05:05:50.771Z,8.30
2019-05-21T05:08:17.905Z,8.30
2019-05-21T05:10:44.888Z,8.30
2019-05-21T05:13:12.818Z,8.30
2019-05-21T05:15:39.943Z,8.30
2019-05-21T05:18:12.519Z,8.30
2019-05-21T05:20:39.713Z,8.30
2019-05-21T05:23:06.890Z,8.30
2019-05-21T05:25:34.046Z,8.30
2019-05-21T05:28:02.148Z,8.40
2019-05-21T05:30:29.573Z,8.40
2019-05-21T05:32:56.699Z,8.50
2019-05-21T05:35:23.749Z,8.50
2019-05-21T05:37:50.784Z,8.50
2019-05-21T05:40:17.934Z,8.60
2019-05-21T05:42:44.950Z,8.70
2019-05-21T05:45:19.451Z,8.80
2019-05-21T05:47:46.459Z,9.80
2019-05-21T05:50:15.419Z,8.80
2019-05-21T05:52:42.563Z,8.90
2019-05-21T05:55:09.812Z,8.90
2019-05-21T05:57:36.899Z,8.90
2019-05-21T06:00:06.626Z,8.90
2019-05-21T06:02:33.685Z,9.00
2019-05-21T06:05:00.948Z,9.00
2019-05-21T06:07:28.011Z,9.00
2019-05-21T06:09:55.092Z,9.00
2019-05-21T06:12:22.140Z,9.10
2019-05-21T06:14:49.224Z,9.20
2019-05-21T06:17:16.322Z,9.20
2019-05-21T06:19:43.464Z,9.20
2019-05-21T06:22:10.437Z,9.20
2019-05-21T06:24:37.461Z,9.20
2019-05-21T06:27:04.461Z,9.10
2019-05-21T06:29:31.562Z,9.10
2019-05-21T06:31:58.598Z,9.10
2019-05-21T06:34:25.691Z,9.10
2019-05-21T06:36:52.952Z,9.00
2019-05-21T06:39:20.206Z,9.00
2019-05-21T06:41:47.429Z,9.00
2019-05-21T06:44:14.556Z,9.00
2019-05-21T06:46:41.687Z,9.00
2019-05-21T06:49:09.554Z,9.00
2019-05-21T06:51:37.498Z,8.50
2019-05-21T06:54:04.763Z,8.90
2019-05-21T06:56:31.904Z,8.90
2019-05-21T06:58:58.975Z,8.90
2019-05-21T07:01:28.834Z,8.90
2019-05-21T07:03:54.963Z,8.90
2019-05-21T07:06:21.996Z,8.80
2019-05-21T07:08:49.080Z,8.90
2019-05-21T07:11:16.180Z,8.90
2019-05-21T07:13:43.313Z,8.90
2019-05-21T07:16:10.332Z,8.90
2019-05-21T07:18:41.102Z,8.90
2019-05-21T07:21:06.278Z,8.90
2019-05-21T07:23:33.319Z,8.90
2019-05-21T07:26:00.484Z,8.90
2019-05-21T07:28:27.517Z,8.90
2019-05-21T07:30:54.562Z,8.90
2019-05-21T07:33:21.647Z,8.90
2019-05-21T07:35:49.032Z,9.00
2019-05-21T07:38:16.051Z,9.00
2019-05-21T07:40:43.320Z,9.10
2019-05-21T07:43:10.439Z,9.10
2019-05-21T07:45:37.465Z,9.20
2019-05-21T07:48:04.540Z,9.30
2019-05-21T07:50:31.542Z,9.30
2019-05-21T07:52:58.598Z,9.40
2019-05-21T07:55:25.743Z,9.40
2019-05-21T07:57:52.792Z,9.50
2019-05-21T08:00:20.214Z,9.60
2019-05-21T08:02:47.237Z,9.60
2019-05-21T08:05:14.220Z,9.70
2019-05-21T08:07:41.245Z,9.80
2019-05-21T08:10:08.863Z,9.80
2019-05-21T08:12:39.444Z,9.80
2019-05-21T08:15:07.063Z,9.90
2019-05-21T08:17:34.189Z,9.90
2019-05-21T08:20:09.370Z,10.00
2019-05-21T08:22:30.242Z,10.00
2019-05-21T08:24:57.334Z,10.10
2019-05-21T08:27:24.315Z,10.20
2019-05-21T08:29:51.428Z,10.40
2019-05-21T08:32:18.393Z,10.40
2019-05-21T08:34:45.585Z,10.60
2019-05-21T08:37:12.575Z,10.80
2019-05-21T08:39:39.703Z,11.00
2019-05-21T08:42:06.685Z,11.00
2019-05-21T08:44:33.791Z,11.00
2019-05-21T08:47:00.867Z,11.00
2019-05-21T08:49:27.942Z,11.10
2019-05-21T08:51:54.963Z,11.20
2019-05-21T08:54:40.459Z,11.10
2019-05-21T08:57:07.485Z,11.00
2019-05-21T08:59:34.598Z,11.10
2019-05-21T09:02:01.615Z,11.30
2019-05-21T09:04:45.441Z,11.50
2019-05-21T09:06:57.475Z,11.80
2019-05-21T09:09:24.507Z,12.10
2019-05-21T09:11:51.545Z,12.70
2019-05-21T09:14:18.643Z,12.80
2019-05-21T09:16:45.703Z,12.90
2019-05-21T09:19:12.823Z,12.90
2019-05-21T09:21:40.075Z,12.70
2019-05-21T09:24:07.229Z,12.50
2019-05-21T09:26:34.419Z,12.40
2019-05-21T09:29:02.320Z,12.30
2019-05-21T09:31:29.438Z,12.10
2019-05-21T09:33:56.549Z,11.80
2019-05-21T09:36:25.309Z,11.60
2019-05-21T09:38:53.577Z,11.50
2019-05-21T09:41:20.782Z,11.50
2019-05-21T09:43:48.775Z,11.50
2019-05-21T09:46:16.098Z,11.50
2019-05-21T09:48:43.254Z,11.40
2019-05-21T09:51:10.238Z,11.50
2019-05-21T09:53:37.453Z,11.50
2019-05-21T09:56:06.241Z,11.50
2019-05-21T09:58:35.143Z,11.50
2019-05-21T10:01:11.089Z,11.40
2019-05-21T10:03:40.188Z,11.30
2019-05-21T10:06:07.145Z,11.20
2019-05-21T10:08:37.144Z,11.20
2019-05-21T10:11:04.872Z,11.20
2019-05-21T10:13:32.032Z,11.30
2019-05-21T10:16:01.503Z,11.40
2019-05-21T10:18:28.008Z,11.50
2019-05-21T10:20:54.984Z,11.70
2019-05-21T10:23:22.124Z,11.80
2019-05-21T10:25:49.113Z,11.80
2019-05-21T10:28:17.142Z,11.90
2019-05-21T10:30:44.191Z,12.00
2019-05-21T10:33:11.356Z,12.10
2019-05-21T10:35:38.351Z,12.10
2019-05-21T10:38:05.395Z,12.10
2019-05-21T10:40:32.376Z,12.10
2019-05-21T10:42:59.509Z,11.90
2019-05-21T10:45:26.579Z,11.60
2019-05-21T10:47:53.715Z,11.50
2019-05-21T10:50:20.669Z,11.40
2019-05-21T10:52:47.790Z,11.40
2019-05-21T10:55:16.153Z,11.50
2019-05-21T10:57:43.929Z,11.70
2019-05-21T11:00:23.038Z,11.90
2019-05-21T11:02:51.929Z,12.00
2019-05-21T11:05:38.011Z,12.10
2019-05-21T11:08:22.815Z,12.40
2019-05-21T11:10:35.017Z,12.60
2019-05-21T11:13:02.152Z,12.70
2019-05-21T11:15:29.262Z,12.90
2019-05-21T11:18:09.559Z,12.90
2019-05-21T11:20:25.174Z,13.00
2019-05-21T11:22:52.328Z,13.00
2019-05-21T11:25:19.301Z,13.10
2019-05-21T11:27:46.409Z,13.20
2019-05-21T11:30:13.884Z,13.30
2019-05-21T11:32:40.897Z,13.40
2019-05-21T11:35:08.850Z,13.60
2019-05-21T11:37:35.948Z,13.80
2019-05-21T11:40:06.671Z,13.90
2019-05-21T11:42:33.884Z,13.80
2019-05-21T11:45:00.994Z,13.80
2019-05-21T11:47:29.244Z,14.00
2019-05-21T11:49:56.230Z,14.10
2019-05-21T11:52:23.266Z,14.20
2019-05-21T11:54:50.467Z,14.30
2019-05-21T11:57:17.554Z,14.30
2019-05-21T11:59:44.523Z,14.10
2019-05-21T12:02:11.887Z,13.90
2019-05-21T12:04:38.924Z,13.80
2019-05-21T12:07:06.129Z,13.90
2019-05-21T12:09:33.127Z,14.20
2019-05-21T12:12:01.400Z,14.30
2019-05-21T12:14:28.570Z,14.10
2019-05-21T12:16:55.802Z,14.00
2019-05-21T12:19:22.977Z,14.10
2019-05-21T12:21:50.106Z,14.60
2019-05-21T12:24:17.830Z,15.20
2019-05-21T12:26:44.977Z,15.60
2019-05-21T12:29:12.104Z,15.50
2019-05-21T12:31:39.233Z,15.60
2019-05-21T12:34:06.396Z,15.60
2019-05-21T12:36:33.453Z,15.40
2019-05-21T12:39:13.599Z,15.30
2019-05-21T12:41:29.714Z,14.90
2019-05-21T12:43:56.758Z,14.50
2019-05-21T12:46:23.812Z,14.20
2019-05-21T12:48:50.924Z,14.30
2019-05-21T12:51:17.931Z,14.70
2019-05-21T12:53:45.074Z,14.90
2019-05-21T12:56:12.108Z,15.20
2019-05-21T12:58:40.175Z,15.20
2019-05-21T13:01:07.322Z,15.20
2019-05-21T13:03:34.427Z,15.00
2019-05-21T13:06:01.458Z,15.10
2019-05-21T13:08:28.558Z,15.20
2019-05-21T13:10:55.618Z,15.10
2019-05-21T13:13:23.642Z,15.00
2019-05-21T13:15:50.602Z,15.10
2019-05-21T13:18:18.421Z,15.30
2019-05-21T13:20:45.434Z,15.30
2019-05-21T13:23:12.503Z,15.20
2019-05-21T13:25:39.544Z,15.10
2019-05-21T13:28:06.652Z,14.90
2019-05-21T13:30:33.690Z,14.90
2019-05-21T13:33:00.781Z,15.00
2019-05-21T13:35:27.825Z,14.90
2019-05-21T13:37:54.931Z,14.90
2019-05-21T13:40:22.980Z,15.00
2019-05-21T13:42:50.026Z,15.00
2019-05-21T13:45:17.103Z,15.00
2019-05-21T13:47:44.289Z,14.90
2019-05-21T13:50:11.587Z,15.00
2019-05-21T13:52:38.736Z,15.00
2019-05-21T13:55:07.269Z,15.00
2019-05-21T13:57:34.440Z,15.00
2019-05-21T14:00:01.700Z,15.00
2019-05-21T14:02:31.990Z,15.00
2019-05-21T14:04:59.472Z,15.00
2019-05-21T14:07:26.690Z,14.90
2019-05-21T14:10:13.208Z,15.10
2019-05-21T14:12:24.341Z,15.40
2019-05-21T14:14:51.595Z,15.60
2019-05-21T14:17:18.671Z,15.70
2019-05-21T14:19:45.896Z,15.70
2019-05-21T14:22:15.472Z,15.40
2019-05-21T14:24:42.675Z,15.30
2019-05-21T14:27:09.803Z,15.30
2019-05-21T14:29:36.951Z,15.20
2019-05-21T14:32:04.176Z,15.20
2019-05-21T14:34:32.103Z,15.00
2019-05-21T14:36:59.226Z,14.80
2019-05-21T14:39:26.378Z,14.60
2019-05-21T14:41:54.377Z,14.50
2019-05-21T14:44:21.546Z,14.20
2019-05-21T14:46:48.753Z,14.00
2019-05-21T14:49:15.832Z,13.80
2019-05-21T14:51:44.074Z,13.60
2019-05-21T14:54:25.482Z,13.40
2019-05-21T14:56:40.104Z,13.30
2019-05-21T14:59:07.265Z,13.40
2019-05-21T15:01:34.378Z,13.60
2019-05-21T15:04:01.700Z,13.80
2019-05-21T15:06:28.900Z,14.10
2019-05-21T15:08:58.615Z,14.40
2019-05-21T15:11:27.863Z,14.70
2019-05-21T15:13:55.033Z,13.20
2019-05-21T15:16:22.213Z,15.00
2019-05-21T15:18:49.370Z,15.50
2019-05-21T15:21:30.571Z,15.60
2019-05-21T15:23:57.892Z,15.40
2019-05-21T15:26:25.031Z,15.20
2019-05-21T15:28:52.102Z,15.10
2019-05-21T15:31:19.185Z,14.90
2019-05-21T15:33:46.228Z,14.60
2019-05-21T15:36:13.390Z,14.40
2019-05-21T15:38:50.118Z,14.00
2019-05-21T15:41:12.516Z,13.70
2019-05-21T15:43:39.086Z,13.50
2019-05-21T15:46:06.086Z,13.40
2019-05-21T15:48:33.163Z,13.40
2019-05-21T15:51:00.233Z,13.30
2019-05-21T15:53:27.305Z,13.40
2019-05-21T15:55:54.378Z,13.40
2019-05-21T15:58:21.494Z,13.40
2019-05-21T16:00:48.580Z,13.40
2019-05-21T16:03:15.700Z,13.30
2019-05-21T16:05:42.736Z,13.10
2019-05-21T16:08:11.619Z,13.00
2019-05-21T16:10:38.617Z,13.00
2019-05-21T16:13:05.751Z,13.00
2019-05-21T16:15:32.934Z,13.00
2019-05-21T16:18:00.089Z,13.10
2019-05-21T16:20:27.527Z,13.10
2019-05-21T16:22:54.552Z,13.10
2019-05-21T16:25:21.594Z,13.10
2019-05-21T16:27:48.806Z,13.00
2019-05-21T16:30:16.130Z,12.80
2019-05-21T16:32:43.178Z,12.70
2019-05-21T16:35:10.506Z,12.80
2019-05-21T16:37:37.593Z,12.80
2019-05-21T16:40:05.935Z,13.00
2019-05-21T16:42:32.997Z,13.10
2019-05-21T16:45:00.191Z,13.40
2019-05-21T16:47:43.880Z,13.60
2019-05-21T16:49:57.509Z,13.80
2019-05-21T16:52:24.602Z,13.90
2019-05-21T16:54:51.735Z,13.50
2019-05-21T16:57:18.808Z,13.30
2019-05-21T16:59:45.921Z,13.30
2019-05-21T17:02:12.948Z,13.30
2019-05-21T17:04:40.060Z,13.30
2019-05-21T17:07:07.191Z,13.40
2019-05-21T17:09:34.319Z,13.40
2019-05-21T17:12:01.406Z,13.50
2019-05-21T17:14:28.622Z,13.40
2019-05-21T17:16:55.782Z,13.20
2019-05-21T17:19:22.889Z,13.20
2019-05-21T17:21:49.999Z,13.20
2019-05-21T17:24:19.484Z,13.30
2019-05-21T17:26:46.583Z,13.30
2019-05-21T17:29:13.706Z,13.40
2019-05-21T17:31:41.897Z,13.30
2019-05-21T17:34:08.929Z,13.20
2019-05-21T17:36:36.023Z,13.00
2019-05-21T17:39:05.097Z,12.90
2019-05-21T17:41:32.206Z,13.00
2019-05-21T17:44:00.211Z,12.70
2019-05-21T17:46:27.383Z,12.70
2019-05-21T17:48:54.350Z,12.70
2019-05-21T17:51:21.585Z,12.60
2019-05-21T17:53:49.564Z,12.70
2019-05-21T17:56:18.275Z,12.70
2019-05-21T17:58:45.403Z,12.70
2019-05-21T18:01:14.442Z,12.80
2019-05-21T18:03:42.512Z,12.90
2019-05-21T18:06:11.823Z,13.00
2019-05-21T18:08:40.140Z,12.90
2019-05-21T18:11:08.919Z,12.80
2019-05-21T18:13:36.668Z,12.80
2019-05-21T18:16:05.669Z,12.70
2019-05-21T18:18:35.767Z,12.60
2019-05-21T18:21:04.007Z,12.60
2019-05-21T18:23:35.436Z,12.50
2019-05-21T18:26:04.682Z,12.40
2019-05-21T18:28:34.331Z,12.40
2019-05-21T18:31:01.581Z,12.30
2019-05-21T18:33:29.993Z,12.30
2019-05-21T18:36:02.411Z,12.60
2019-05-21T18:38:32.136Z,12.20
2019-05-21T18:41:01.732Z,12.20
2019-05-21T18:43:31.956Z,12.20
2019-05-21T18:45:59.247Z,12.20
2019-05-21T18:48:26.411Z,12.10
2019-05-21T18:50:53.516Z,12.10
2019-05-21T18:53:20.674Z,12.00
2019-05-21T18:55:47.840Z,12.30
2019-05-21T18:58:17.249Z,11.90
2019-05-21T19:00:44.068Z,11.80
2019-05-21T19:03:11.234Z,11.70
2019-05-21T19:05:38.353Z,11.70
2019-05-21T19:08:05.600Z,11.70
2019-05-21T19:10:32.655Z,11.60
2019-05-21T19:13:00.924Z,11.60
2019-05-21T19:15:28.854Z,11.50
2019-05-21T19:17:55.926Z,11.50
2019-05-21T19:20:22.969Z,11.30
2019-05-21T19:22:49.967Z,11.30
2019-05-21T19:25:16.968Z,11.20
2019-05-21T19:27:44.099Z,11.20
2019-05-21T19:30:12.013Z,11.00
2019-05-21T19:32:40.272Z,11.00
2019-05-21T19:35:08.449Z,10.80
2019-05-21T19:37:35.493Z,10.80
2019-05-21T19:40:03.581Z,10.80
2019-05-21T19:42:30.808Z,10.80
2019-05-21T19:45:04.929Z,10.80
2019-05-21T19:47:32.164Z,10.80
2019-05-21T19:49:59.341Z,10.80
2019-05-21T19:52:30.877Z,10.70
2019-05-21T19:54:58.276Z,10.60
2019-05-21T19:57:27.233Z,10.60
2019-05-21T19:59:54.552Z,10.60
2019-05-21T20:02:21.681Z,10.60
2019-05-21T20:04:48.919Z,10.60
2019-05-21T20:07:22.568Z,10.60
2019-05-21T20:09:50.212Z,10.60
2019-05-21T20:12:18.014Z,10.60
2019-05-21T20:14:45.469Z,10.60
2019-05-21T20:17:17.102Z,10.60
2019-05-21T20:19:46.338Z,10.50
2019-05-21T20:22:16.057Z,10.50
2019-05-21T20:24:43.411Z,10.50
2019-05-21T20:27:10.772Z,10.50
2019-05-21T20:29:38.892Z,10.60
2019-05-21T20:32:13.223Z,10.60
2019-05-21T20:34:40.575Z,10.60
2019-05-21T20:37:10.267Z,10.50
2019-05-21T20:39:38.462Z,10.50
2019-05-21T20:42:09.764Z,10.50
2019-05-21T20:44:36.839Z,10.40
2019-05-21T20:47:06.138Z,10.40
2019-05-21T20:49:33.731Z,10.20
2019-05-21T20:52:16.077Z,10.10
2019-05-21T20:54:31.697Z,10.10
2019-05-21T20:56:59.706Z,10.00
2019-05-21T20:59:26.946Z,10.00
2019-05-21T21:01:54.193Z,9.90
2019-05-21T21:04:21.256Z,9.80
2019-05-21T21:06:48.239Z,9.70
2019-05-21T21:09:15.814Z,9.70
2019-05-21T21:11:43.319Z,9.70
2019-05-21T21:14:18.025Z,9.60
2019-05-21T21:16:42.044Z,9.50
2019-05-21T21:19:09.904Z,9.50
2019-05-21T21:21:37.334Z,9.50
2019-05-21T21:24:06.172Z,9.40
2019-05-21T21:26:34.670Z,9.40
2019-05-21T21:29:02.099Z,9.40
2019-05-21T21:31:29.563Z,9.30
2019-05-21T21:33:57.410Z,9.20
2019-05-21T21:36:24.480Z,9.20
2019-05-21T21:38:52.387Z,9.10
2019-05-21T21:41:19.601Z,9.10
2019-05-21T21:43:46.811Z,9.10
2019-05-21T21:46:14.020Z,9.00
2019-05-21T21:48:44.902Z,9.00
2019-05-21T21:51:11.403Z,8.90
2019-05-21T21:53:39.226Z,9.00
2019-05-21T21:56:07.375Z,9.00
2019-05-21T21:58:34.420Z,8.90
2019-05-21T22:01:08.524Z,8.90
2019-05-21T22:03:36.614Z,8.80
2019-05-21T22:06:08.331Z,8.70
2019-05-21T22:08:35.439Z,8.70
2019-05-21T22:11:03.513Z,8.60
2019-05-21T22:13:31.017Z,8.60
2019-05-21T22:15:59.030Z,8.60
2019-05-21T22:18:27.042Z,8.60
2019-05-21T22:20:55.308Z,8.60
2019-05-21T22:23:22.972Z,8.60
2019-05-21T22:25:50.052Z,8.50
2019-05-21T22:28:17.825Z,8.50
2019-05-21T22:30:45.161Z,8.50
2019-05-21T22:33:13.081Z,8.50
2019-05-21T22:35:40.372Z,8.40
2019-05-21T22:38:07.337Z,8.40
2019-05-21T22:40:34.390Z,8.40
2019-05-21T22:43:01.558Z,8.30
2019-05-21T22:45:29.049Z,8.30
2019-05-21T22:47:56.184Z,8.30
2019-05-21T22:50:23.156Z,8.40
2019-05-21T22:52:50.193Z,8.20
2019-05-21T22:55:17.243Z,8.20
2019-05-21T22:57:44.386Z,8.10
2019-05-21T23:00:12.307Z,8.10
2019-05-21T23:02:40.786Z,8.00
2019-05-21T23:05:09.696Z,8.00
2019-05-21T23:07:38.757Z,7.90
2019-05-21T23:10:07.610Z,7.90
2019-05-21T23:12:35.580Z,8.10
2019-05-21T23:15:04.716Z,7.80
2019-05-21T23:17:33.886Z,7.70
2019-05-21T23:20:11.856Z,7.70
2019-05-21T23:22:42.616Z,7.60
2019-05-21T23:25:12.049Z,7.60
2019-05-21T23:27:40.217Z,7.50
2019-05-21T23:30:10.889Z,7.50
2019-05-21T23:32:38.795Z,7.40
2019-05-21T23:35:07.369Z,7.40
2019-05-21T23:37:37.957Z,7.40
2019-05-21T23:40:09.543Z,7.30
2019-05-21T23:42:37.310Z,7.20
2019-05-21T23:45:07.939Z,7.10
2019-05-21T23:47:35.727Z,7.10
2019-05-21T23:50:07.922Z,7.00
2019-05-21T23:52:37.421Z,7.00
2019-05-21T23:55:06.028Z,6.90
2019-05-21T23:57:35.965Z,6.80
